sensor_id;sensor_type;location;lat;lon;timestamp;P1;durP1;ratioP1;P2;durP2;ratioP2
9422;SDS011;4750;49.506;10.400;2022-07-09T00:02:16;4.27;;;1.77;;
9422;SDS011;4750;49.506;10.400;2022-07-09T00:05:00;5.77;;;2.20;;
9422;SDS011;4750;49.506;10.400;2022-07-09T00:07:44;4.63;;;2.00;;
9422;SDS011;4750;49.506;10.400;2022-07-09T00:10:28;4.33;;;1.90;;
9422;SDS011;4750;49.506;10.400;2022-07-09T00:13:12;5.40;;;1.90;;
9422;SDS011;4750;49.506;10.400;2022-07-09T00:15:56;5.03;;;2.23;;
9422;SDS011;4750;49.506;10.400;2022-07-09T00:18:40;8.83;;;2.10;;
9422;SDS011;4750;49.506;10.400;2022-07-09T00:21:24;3.00;;;1.70;;
9422;SDS011;4750;49.506;10.400;2022-07-09T00:24:08;3.77;;;1.40;;
9422;SDS011;4750;49.506;10.400;2022-07-09T00:26:53;2.27;;;1.40;;
9422;SDS011;4750;49.506;10.400;2022-07-09T00:29:37;4.40;;;1.70;;
9422;SDS011;4750;49.506;10.400;2022-07-09T00:32:21;3.93;;;1.57;;
9422;SDS011;4750;49.506;10.400;2022-07-09T00:35:05;2.37;;;1.40;;
9422;SDS011;4750;49.506;10.400;2022-07-09T00:37:49;4.07;;;1.70;;
9422;SDS011;4750;49.506;10.400;2022-07-09T00:40:33;4.80;;;1.93;;
9422;SDS011;4750;49.506;10.400;2022-07-09T00:43:18;5.07;;;2.00;;
9422;SDS011;4750;49.506;10.400;2022-07-09T00:46:03;3.37;;;1.47;;
9422;SDS011;4750;49.506;10.400;2022-07-09T00:48:47;4.63;;;1.60;;
9422;SDS011;4750;49.506;10.400;2022-07-09T00:51:31;2.30;;;1.37;;
9422;SDS011;4750;49.506;10.400;2022-07-09T00:54:16;2.23;;;1.20;;
9422;SDS011;4750;49.506;10.400;2022-07-09T00:56:59;4.33;;;1.60;;
9422;SDS011;4750;49.506;10.400;2022-07-09T00:59:45;5.10;;;1.60;;
9422;SDS011;4750;49.506;10.400;2022-07-09T01:02:29;4.00;;;1.87;;
9422;SDS011;4750;49.506;10.400;2022-07-09T01:05:13;2.97;;;1.53;;
9422;SDS011;4750;49.506;10.400;2022-07-09T01:07:57;3.37;;;1.70;;
9422;SDS011;4750;49.506;10.400;2022-07-09T01:10:42;1.53;;;1.40;;
9422;SDS011;4750;49.506;10.400;2022-07-09T01:13:27;6.17;;;1.90;;
9422;SDS011;4750;49.506;10.400;2022-07-09T01:16:15;3.17;;;1.60;;
9422;SDS011;4750;49.506;10.400;2022-07-09T01:19:00;4.00;;;1.97;;
9422;SDS011;4750;49.506;10.400;2022-07-09T01:21:44;3.60;;;1.77;;
9422;SDS011;4750;49.506;10.400;2022-07-09T01:24:28;3.47;;;1.60;;
9422;SDS011;4750;49.506;10.400;2022-07-09T01:27:12;2.73;;;1.27;;
9422;SDS011;4750;49.506;10.400;2022-07-09T01:29:56;5.97;;;2.07;;
9422;SDS011;4750;49.506;10.400;2022-07-09T01:32:40;2.47;;;1.90;;
9422;SDS011;4750;49.506;10.400;2022-07-09T01:35:24;3.33;;;1.87;;
9422;SDS011;4750;49.506;10.400;2022-07-09T01:38:08;2.97;;;2.23;;
9422;SDS011;4750;49.506;10.400;2022-07-09T01:40:52;4.73;;;1.90;;
9422;SDS011;4750;49.506;10.400;2022-07-09T01:43:36;4.20;;;2.00;;
9422;SDS011;4750;49.506;10.400;2022-07-09T01:46:20;2.37;;;1.80;;
9422;SDS011;4750;49.506;10.400;2022-07-09T01:49:04;3.50;;;1.83;;
9422;SDS011;4750;49.506;10.400;2022-07-09T01:51:48;3.13;;;2.00;;
9422;SDS011;4750;49.506;10.400;2022-07-09T01:54:32;3.87;;;2.23;;
9422;SDS011;4750;49.506;10.400;2022-07-09T01:57:16;3.57;;;1.80;;
9422;SDS011;4750;49.506;10.400;2022-07-09T02:00:00;2.70;;;1.70;;
9422;SDS011;4750;49.506;10.400;2022-07-09T02:02:44;3.90;;;2.00;;
9422;SDS011;4750;49.506;10.400;2022-07-09T02:05:28;5.40;;;2.03;;
9422;SDS011;4750;49.506;10.400;2022-07-09T02:08:13;4.13;;;2.10;;
9422;SDS011;4750;49.506;10.400;2022-07-09T02:10:57;5.83;;;2.10;;
9422;SDS011;4750;49.506;10.400;2022-07-09T02:13:41;3.33;;;2.00;;
9422;SDS011;4750;49.506;10.400;2022-07-09T02:16:25;4.63;;;2.30;;
9422;SDS011;4750;49.506;10.400;2022-07-09T02:19:09;3.07;;;1.90;;
9422;SDS011;4750;49.506;10.400;2022-07-09T02:21:54;2.87;;;1.90;;
9422;SDS011;4750;49.506;10.400;2022-07-09T02:24:38;3.57;;;2.20;;
9422;SDS011;4750;49.506;10.400;2022-07-09T02:27:22;6.30;;;2.20;;
9422;SDS011;4750;49.506;10.400;2022-07-09T02:30:06;3.23;;;1.63;;
9422;SDS011;4750;49.506;10.400;2022-07-09T02:32:50;3.23;;;1.83;;
9422;SDS011;4750;49.506;10.400;2022-07-09T02:35:34;4.27;;;2.17;;
9422;SDS011;4750;49.506;10.400;2022-07-09T02:38:19;3.90;;;2.07;;
9422;SDS011;4750;49.506;10.400;2022-07-09T02:41:06;3.37;;;2.20;;
9422;SDS011;4750;49.506;10.400;2022-07-09T02:43:50;3.27;;;2.00;;
9422;SDS011;4750;49.506;10.400;2022-07-09T02:46:34;5.00;;;2.33;;
9422;SDS011;4750;49.506;10.400;2022-07-09T02:49:18;4.23;;;2.27;;
9422;SDS011;4750;49.506;10.400;2022-07-09T02:52:02;6.23;;;2.37;;
9422;SDS011;4750;49.506;10.400;2022-07-09T02:54:46;5.87;;;2.67;;
9422;SDS011;4750;49.506;10.400;2022-07-09T02:57:29;3.67;;;2.37;;
9422;SDS011;4750;49.506;10.400;2022-07-09T03:00:13;7.10;;;2.27;;
9422;SDS011;4750;49.506;10.400;2022-07-09T03:02:58;7.43;;;2.73;;
9422;SDS011;4750;49.506;10.400;2022-07-09T03:05:42;5.30;;;2.13;;
9422;SDS011;4750;49.506;10.400;2022-07-09T03:08:26;4.40;;;2.40;;
9422;SDS011;4750;49.506;10.400;2022-07-09T03:11:10;5.20;;;2.63;;
9422;SDS011;4750;49.506;10.400;2022-07-09T03:13:55;4.37;;;2.27;;
9422;SDS011;4750;49.506;10.400;2022-07-09T03:16:39;2.97;;;2.10;;
9422;SDS011;4750;49.506;10.400;2022-07-09T03:19:23;3.30;;;2.03;;
9422;SDS011;4750;49.506;10.400;2022-07-09T03:22:07;4.53;;;2.20;;
9422;SDS011;4750;49.506;10.400;2022-07-09T03:24:50;2.27;;;1.87;;
9422;SDS011;4750;49.506;10.400;2022-07-09T03:27:35;3.00;;;2.00;;
9422;SDS011;4750;49.506;10.400;2022-07-09T03:30:19;2.10;;;1.77;;
9422;SDS011;4750;49.506;10.400;2022-07-09T03:33:03;2.80;;;2.17;;
9422;SDS011;4750;49.506;10.400;2022-07-09T03:35:47;5.63;;;2.60;;
9422;SDS011;4750;49.506;10.400;2022-07-09T03:38:31;3.43;;;2.30;;
9422;SDS011;4750;49.506;10.400;2022-07-09T03:41:15;2.50;;;2.30;;
9422;SDS011;4750;49.506;10.400;2022-07-09T03:43:59;7.50;;;2.50;;
9422;SDS011;4750;49.506;10.400;2022-07-09T03:46:43;3.40;;;2.80;;
9422;SDS011;4750;49.506;10.400;2022-07-09T03:49:27;5.40;;;3.13;;
9422;SDS011;4750;49.506;10.400;2022-07-09T03:52:11;4.40;;;3.40;;
9422;SDS011;4750;49.506;10.400;2022-07-09T03:54:55;5.33;;;3.27;;
9422;SDS011;4750;49.506;10.400;2022-07-09T03:57:39;4.57;;;2.60;;
9422;SDS011;4750;49.506;10.400;2022-07-09T04:00:24;4.63;;;2.70;;
9422;SDS011;4750;49.506;10.400;2022-07-09T04:03:08;5.97;;;3.00;;
9422;SDS011;4750;49.506;10.400;2022-07-09T04:05:52;8.10;;;2.70;;
9422;SDS011;4750;49.506;10.400;2022-07-09T04:08:36;4.83;;;2.87;;
9422;SDS011;4750;49.506;10.400;2022-07-09T04:11:20;5.17;;;3.43;;
9422;SDS011;4750;49.506;10.400;2022-07-09T04:14:04;3.83;;;2.70;;
9422;SDS011;4750;49.506;10.400;2022-07-09T04:16:48;4.47;;;2.70;;
9422;SDS011;4750;49.506;10.400;2022-07-09T04:19:32;6.83;;;3.20;;
9422;SDS011;4750;49.506;10.400;2022-07-09T04:22:16;4.40;;;2.50;;
9422;SDS011;4750;49.506;10.400;2022-07-09T04:25:00;5.93;;;3.00;;
9422;SDS011;4750;49.506;10.400;2022-07-09T04:27:44;2.80;;;2.53;;
9422;SDS011;4750;49.506;10.400;2022-07-09T04:30:28;3.97;;;2.50;;
9422;SDS011;4750;49.506;10.400;2022-07-09T04:33:12;4.90;;;2.90;;
9422;SDS011;4750;49.506;10.400;2022-07-09T04:35:57;10.33;;;3.00;;
9422;SDS011;4750;49.506;10.400;2022-07-09T04:38:41;3.27;;;2.80;;
9422;SDS011;4750;49.506;10.400;2022-07-09T04:41:26;7.23;;;2.60;;
9422;SDS011;4750;49.506;10.400;2022-07-09T04:44:10;8.80;;;2.77;;
9422;SDS011;4750;49.506;10.400;2022-07-09T04:46:59;4.23;;;2.50;;
9422;SDS011;4750;49.506;10.400;2022-07-09T04:49:43;3.87;;;2.80;;
9422;SDS011;4750;49.506;10.400;2022-07-09T04:52:27;5.17;;;3.13;;
9422;SDS011;4750;49.506;10.400;2022-07-09T04:55:12;4.70;;;3.10;;
9422;SDS011;4750;49.506;10.400;2022-07-09T04:57:56;3.03;;;2.50;;
9422;SDS011;4750;49.506;10.400;2022-07-09T05:00:40;5.03;;;2.50;;
9422;SDS011;4750;49.506;10.400;2022-07-09T05:03:24;5.97;;;2.67;;
9422;SDS011;4750;49.506;10.400;2022-07-09T05:06:08;4.27;;;2.73;;
9422;SDS011;4750;49.506;10.400;2022-07-09T05:08:52;3.10;;;2.50;;
9422;SDS011;4750;49.506;10.400;2022-07-09T05:11:36;5.10;;;2.53;;
9422;SDS011;4750;49.506;10.400;2022-07-09T05:14:20;4.63;;;2.57;;
9422;SDS011;4750;49.506;10.400;2022-07-09T05:17:04;7.67;;;2.53;;
9422;SDS011;4750;49.506;10.400;2022-07-09T05:19:49;3.73;;;2.00;;
9422;SDS011;4750;49.506;10.400;2022-07-09T05:22:34;4.90;;;2.10;;
9422;SDS011;4750;49.506;10.400;2022-07-09T05:25:19;5.40;;;2.00;;
9422;SDS011;4750;49.506;10.400;2022-07-09T05:28:03;3.53;;;1.60;;
9422;SDS011;4750;49.506;10.400;2022-07-09T05:30:47;2.73;;;1.87;;
9422;SDS011;4750;49.506;10.400;2022-07-09T05:33:31;3.13;;;1.60;;
9422;SDS011;4750;49.506;10.400;2022-07-09T05:36:16;2.10;;;1.57;;
9422;SDS011;4750;49.506;10.400;2022-07-09T05:39:01;2.87;;;1.60;;
9422;SDS011;4750;49.506;10.400;2022-07-09T05:41:46;2.50;;;1.43;;
9422;SDS011;4750;49.506;10.400;2022-07-09T05:44:30;4.63;;;1.70;;
9422;SDS011;4750;49.506;10.400;2022-07-09T05:47:15;2.87;;;1.67;;
9422;SDS011;4750;49.506;10.400;2022-07-09T05:49:59;4.60;;;1.50;;
9422;SDS011;4750;49.506;10.400;2022-07-09T05:52:43;4.33;;;1.47;;
9422;SDS011;4750;49.506;10.400;2022-07-09T05:55:28;7.37;;;1.70;;
9422;SDS011;4750;49.506;10.400;2022-07-09T05:58:12;3.60;;;1.70;;
9422;SDS011;4750;49.506;10.400;2022-07-09T06:00:56;4.10;;;1.60;;
9422;SDS011;4750;49.506;10.400;2022-07-09T06:03:40;2.47;;;1.40;;
9422;SDS011;4750;49.506;10.400;2022-07-09T06:06:25;3.23;;;1.30;;
9422;SDS011;4750;49.506;10.400;2022-07-09T06:09:08;2.37;;;1.20;;
9422;SDS011;4750;49.506;10.400;2022-07-09T06:11:53;3.80;;;1.50;;
9422;SDS011;4750;49.506;10.400;2022-07-09T06:14:37;2.30;;;1.40;;
9422;SDS011;4750;49.506;10.400;2022-07-09T06:17:21;3.30;;;1.57;;
9422;SDS011;4750;49.506;10.400;2022-07-09T06:20:05;3.40;;;1.20;;
9422;SDS011;4750;49.506;10.400;2022-07-09T06:22:50;1.67;;;1.13;;
9422;SDS011;4750;49.506;10.400;2022-07-09T06:25:34;1.80;;;0.93;;
9422;SDS011;4750;49.506;10.400;2022-07-09T06:28:18;2.97;;;1.17;;
9422;SDS011;4750;49.506;10.400;2022-07-09T06:31:02;2.20;;;1.20;;
9422;SDS011;4750;49.506;10.400;2022-07-09T06:33:46;1.07;;;0.83;;
9422;SDS011;4750;49.506;10.400;2022-07-09T06:36:30;1.77;;;0.93;;
9422;SDS011;4750;49.506;10.400;2022-07-09T06:39:14;2.17;;;1.00;;
9422;SDS011;4750;49.506;10.400;2022-07-09T06:42:17;2.20;;;1.07;;
9422;SDS011;4750;49.506;10.400;2022-07-09T06:45:04;5.33;;;1.30;;
9422;SDS011;4750;49.506;10.400;2022-07-09T06:47:48;2.27;;;1.00;;
9422;SDS011;4750;49.506;10.400;2022-07-09T06:50:32;3.93;;;1.20;;
9422;SDS011;4750;49.506;10.400;2022-07-09T06:53:17;2.30;;;0.90;;
9422;SDS011;4750;49.506;10.400;2022-07-09T06:56:00;2.13;;;1.10;;
9422;SDS011;4750;49.506;10.400;2022-07-09T06:58:45;2.93;;;1.23;;
9422;SDS011;4750;49.506;10.400;2022-07-09T07:01:29;2.63;;;0.87;;
9422;SDS011;4750;49.506;10.400;2022-07-09T07:04:13;2.80;;;1.20;;
9422;SDS011;4750;49.506;10.400;2022-07-09T07:06:58;2.40;;;0.97;;
9422;SDS011;4750;49.506;10.400;2022-07-09T07:09:42;2.23;;;1.10;;
9422;SDS011;4750;49.506;10.400;2022-07-09T07:12:26;2.97;;;1.10;;
9422;SDS011;4750;49.506;10.400;2022-07-09T07:15:10;3.90;;;1.37;;
9422;SDS011;4750;49.506;10.400;2022-07-09T07:17:54;3.17;;;1.20;;
9422;SDS011;4750;49.506;10.400;2022-07-09T07:20:38;2.27;;;1.40;;
9422;SDS011;4750;49.506;10.400;2022-07-09T07:23:22;2.63;;;1.20;;
9422;SDS011;4750;49.506;10.400;2022-07-09T07:26:06;2.63;;;1.30;;
9422;SDS011;4750;49.506;10.400;2022-07-09T07:28:50;2.57;;;1.43;;
9422;SDS011;4750;49.506;10.400;2022-07-09T07:31:34;4.80;;;1.27;;
9422;SDS011;4750;49.506;10.400;2022-07-09T07:34:18;4.70;;;1.47;;
9422;SDS011;4750;49.506;10.400;2022-07-09T07:37:05;2.33;;;1.30;;
9422;SDS011;4750;49.506;10.400;2022-07-09T07:39:49;3.80;;;1.40;;
9422;SDS011;4750;49.506;10.400;2022-07-09T07:42:33;3.50;;;1.40;;
9422;SDS011;4750;49.506;10.400;2022-07-09T07:45:17;3.77;;;1.67;;
9422;SDS011;4750;49.506;10.400;2022-07-09T07:48:01;4.93;;;1.60;;
9422;SDS011;4750;49.506;10.400;2022-07-09T07:50:45;3.23;;;1.60;;
9422;SDS011;4750;49.506;10.400;2022-07-09T07:53:32;3.57;;;1.73;;
9422;SDS011;4750;49.506;10.400;2022-07-09T07:56:16;2.57;;;1.53;;
9422;SDS011;4750;49.506;10.400;2022-07-09T07:59:02;2.80;;;1.63;;
9422;SDS011;4750;49.506;10.400;2022-07-09T08:01:46;4.07;;;1.70;;
9422;SDS011;4750;49.506;10.400;2022-07-09T08:04:30;3.40;;;1.87;;
9422;SDS011;4750;49.506;10.400;2022-07-09T08:07:15;2.60;;;1.27;;
9422;SDS011;4750;49.506;10.400;2022-07-09T08:09:59;5.10;;;1.90;;
9422;SDS011;4750;49.506;10.400;2022-07-09T08:12:43;3.43;;;1.50;;
9422;SDS011;4750;49.506;10.400;2022-07-09T08:15:27;4.87;;;2.00;;
9422;SDS011;4750;49.506;10.400;2022-07-09T08:18:11;3.70;;;1.77;;
9422;SDS011;4750;49.506;10.400;2022-07-09T08:20:55;4.80;;;1.80;;
9422;SDS011;4750;49.506;10.400;2022-07-09T08:23:39;3.67;;;1.70;;
9422;SDS011;4750;49.506;10.400;2022-07-09T08:26:37;2.57;;;1.30;;
9422;SDS011;4750;49.506;10.400;2022-07-09T08:29:21;4.23;;;1.87;;
9422;SDS011;4750;49.506;10.400;2022-07-09T08:32:05;4.83;;;1.57;;
9422;SDS011;4750;49.506;10.400;2022-07-09T08:34:50;6.70;;;1.70;;
9422;SDS011;4750;49.506;10.400;2022-07-09T08:37:34;2.47;;;1.50;;
9422;SDS011;4750;49.506;10.400;2022-07-09T08:40:22;2.03;;;1.40;;
9422;SDS011;4750;49.506;10.400;2022-07-09T08:43:09;3.30;;;1.67;;
9422;SDS011;4750;49.506;10.400;2022-07-09T08:45:54;3.80;;;1.67;;
9422;SDS011;4750;49.506;10.400;2022-07-09T08:48:40;2.53;;;1.53;;
9422;SDS011;4750;49.506;10.400;2022-07-09T08:51:26;5.87;;;1.97;;
9422;SDS011;4750;49.506;10.400;2022-07-09T08:54:10;2.70;;;1.50;;
9422;SDS011;4750;49.506;10.400;2022-07-09T08:56:54;3.30;;;1.77;;
9422;SDS011;4750;49.506;10.400;2022-07-09T08:59:38;4.50;;;1.60;;
9422;SDS011;4750;49.506;10.400;2022-07-09T09:02:22;3.77;;;1.50;;
9422;SDS011;4750;49.506;10.400;2022-07-09T09:05:13;3.90;;;1.53;;
9422;SDS011;4750;49.506;10.400;2022-07-09T09:07:59;2.87;;;1.40;;
9422;SDS011;4750;49.506;10.400;2022-07-09T09:10:44;2.77;;;1.50;;
9422;SDS011;4750;49.506;10.400;2022-07-09T09:13:30;3.60;;;1.60;;
9422;SDS011;4750;49.506;10.400;2022-07-09T09:16:17;4.57;;;1.70;;
9422;SDS011;4750;49.506;10.400;2022-07-09T09:19:02;4.07;;;1.50;;
9422;SDS011;4750;49.506;10.400;2022-07-09T09:21:49;3.77;;;1.70;;
9422;SDS011;4750;49.506;10.400;2022-07-09T09:24:36;3.60;;;1.73;;
9422;SDS011;4750;49.506;10.400;2022-07-09T09:27:27;5.13;;;1.70;;
9422;SDS011;4750;49.506;10.400;2022-07-09T09:30:12;3.30;;;1.40;;
9422;SDS011;4750;49.506;10.400;2022-07-09T09:33:06;2.87;;;1.67;;
9422;SDS011;4750;49.506;10.400;2022-07-09T09:35:50;3.43;;;1.60;;
9422;SDS011;4750;49.506;10.400;2022-07-09T09:38:34;3.07;;;1.77;;
9422;SDS011;4750;49.506;10.400;2022-07-09T09:41:22;5.37;;;1.90;;
9422;SDS011;4750;49.506;10.400;2022-07-09T09:44:07;3.33;;;1.70;;
9422;SDS011;4750;49.506;10.400;2022-07-09T09:46:54;2.50;;;1.53;;
9422;SDS011;4750;49.506;10.400;2022-07-09T09:49:41;3.17;;;1.73;;
9422;SDS011;4750;49.506;10.400;2022-07-09T09:52:25;3.13;;;1.40;;
9422;SDS011;4750;49.506;10.400;2022-07-09T09:55:10;5.47;;;1.93;;
9422;SDS011;4750;49.506;10.400;2022-07-09T09:57:56;6.47;;;1.70;;
9422;SDS011;4750;49.506;10.400;2022-07-09T10:00:41;5.37;;;1.80;;
9422;SDS011;4750;49.506;10.400;2022-07-09T10:03:26;2.50;;;1.50;;
9422;SDS011;4750;49.506;10.400;2022-07-09T10:06:10;2.83;;;1.50;;
9422;SDS011;4750;49.506;10.400;2022-07-09T10:08:54;2.23;;;1.23;;
9422;SDS011;4750;49.506;10.400;2022-07-09T10:17:14;2.57;;;1.60;;
9422;SDS011;4750;49.506;10.400;2022-07-09T10:20:02;2.27;;;1.67;;
9422;SDS011;4750;49.506;10.400;2022-07-09T10:22:48;1.67;;;1.50;;
9422;SDS011;4750;49.506;10.400;2022-07-09T10:25:43;1.97;;;1.57;;
9422;SDS011;4750;49.506;10.400;2022-07-09T10:28:29;3.20;;;1.80;;
9422;SDS011;4750;49.506;10.400;2022-07-09T10:31:23;2.37;;;1.57;;
9422;SDS011;4750;49.506;10.400;2022-07-09T10:34:08;1.73;;;1.40;;
9422;SDS011;4750;49.506;10.400;2022-07-09T10:37:00;5.40;;;1.50;;
9422;SDS011;4750;49.506;10.400;2022-07-09T10:39:53;1.97;;;1.40;;
9422;SDS011;4750;49.506;10.400;2022-07-09T10:42:38;3.17;;;1.63;;
9422;SDS011;4750;49.506;10.400;2022-07-09T10:45:23;2.53;;;1.60;;
9422;SDS011;4750;49.506;10.400;2022-07-09T10:48:09;2.53;;;1.50;;
9422;SDS011;4750;49.506;10.400;2022-07-09T10:50:53;3.73;;;1.40;;
9422;SDS011;4750;49.506;10.400;2022-07-09T10:53:37;3.10;;;1.40;;
9422;SDS011;4750;49.506;10.400;2022-07-09T10:56:21;2.40;;;1.57;;
9422;SDS011;4750;49.506;10.400;2022-07-09T10:59:06;1.90;;;1.37;;
9422;SDS011;4750;49.506;10.400;2022-07-09T11:01:50;2.97;;;1.30;;
9422;SDS011;4750;49.506;10.400;2022-07-09T11:04:35;2.70;;;1.33;;
9422;SDS011;4750;49.506;10.400;2022-07-09T11:07:22;4.37;;;1.60;;
9422;SDS011;4750;49.506;10.400;2022-07-09T11:10:08;4.10;;;1.80;;
9422;SDS011;4750;49.506;10.400;2022-07-09T11:13:04;3.83;;;1.90;;
9422;SDS011;4750;49.506;10.400;2022-07-09T11:15:50;4.60;;;1.80;;
9422;SDS011;4750;49.506;10.400;2022-07-09T11:18:34;3.77;;;1.97;;
9422;SDS011;4750;49.506;10.400;2022-07-09T11:21:24;4.17;;;1.90;;
9422;SDS011;4750;49.506;10.400;2022-07-09T11:24:27;3.03;;;2.03;;
9422;SDS011;4750;49.506;10.400;2022-07-09T11:27:13;3.00;;;1.60;;
9422;SDS011;4750;49.506;10.400;2022-07-09T11:30:01;4.07;;;1.60;;
9422;SDS011;4750;49.506;10.400;2022-07-09T11:32:47;4.53;;;1.70;;
9422;SDS011;4750;49.506;10.400;2022-07-09T11:35:32;3.23;;;1.70;;
9422;SDS011;4750;49.506;10.400;2022-07-09T11:38:17;2.83;;;1.40;;
9422;SDS011;4750;49.506;10.400;2022-07-09T11:41:01;2.03;;;1.40;;
9422;SDS011;4750;49.506;10.400;2022-07-09T11:43:49;2.83;;;1.60;;
9422;SDS011;4750;49.506;10.400;2022-07-09T11:46:33;2.50;;;1.30;;
9422;SDS011;4750;49.506;10.400;2022-07-09T11:49:17;2.17;;;1.37;;
9422;SDS011;4750;49.506;10.400;2022-07-09T11:52:01;2.80;;;1.57;;
9422;SDS011;4750;49.506;10.400;2022-07-09T11:54:59;2.60;;;1.60;;
9422;SDS011;4750;49.506;10.400;2022-07-09T11:57:55;2.67;;;1.50;;
9422;SDS011;4750;49.506;10.400;2022-07-09T12:00:46;2.53;;;1.40;;
9422;SDS011;4750;49.506;10.400;2022-07-09T12:03:30;2.87;;;1.53;;
9422;SDS011;4750;49.506;10.400;2022-07-09T12:06:15;2.33;;;1.50;;
9422;SDS011;4750;49.506;10.400;2022-07-09T12:09:03;3.07;;;1.60;;
9422;SDS011;4750;49.506;10.400;2022-07-09T12:11:48;1.50;;;1.40;;
9422;SDS011;4750;49.506;10.400;2022-07-09T12:14:32;2.63;;;1.50;;
9422;SDS011;4750;49.506;10.400;2022-07-09T12:17:19;4.10;;;1.50;;
9422;SDS011;4750;49.506;10.400;2022-07-09T12:20:07;2.00;;;1.43;;
9422;SDS011;4750;49.506;10.400;2022-07-09T12:22:52;3.17;;;1.63;;
9422;SDS011;4750;49.506;10.400;2022-07-09T12:25:37;2.40;;;1.63;;
9422;SDS011;4750;49.506;10.400;2022-07-09T12:28:21;3.07;;;1.53;;
9422;SDS011;4750;49.506;10.400;2022-07-09T12:31:05;2.67;;;1.67;;
9422;SDS011;4750;49.506;10.400;2022-07-09T12:33:49;1.47;;;1.37;;
9422;SDS011;4750;49.506;10.400;2022-07-09T12:36:33;2.97;;;1.60;;
9422;SDS011;4750;49.506;10.400;2022-07-09T12:39:17;2.23;;;1.50;;
9422;SDS011;4750;49.506;10.400;2022-07-09T12:42:09;4.03;;;1.50;;
9422;SDS011;4750;49.506;10.400;2022-07-09T12:44:53;3.33;;;1.70;;
9422;SDS011;4750;49.506;10.400;2022-07-09T12:47:37;2.47;;;1.27;;
9422;SDS011;4750;49.506;10.400;2022-07-09T12:50:21;2.97;;;1.77;;
9422;SDS011;4750;49.506;10.400;2022-07-09T12:53:05;4.27;;;1.70;;
9422;SDS011;4750;49.506;10.400;2022-07-09T12:55:49;4.07;;;1.83;;
9422;SDS011;4750;49.506;10.400;2022-07-09T12:58:34;2.50;;;1.50;;
9422;SDS011;4750;49.506;10.400;2022-07-09T13:01:18;1.90;;;1.50;;
9422;SDS011;4750;49.506;10.400;2022-07-09T13:04:02;4.73;;;1.77;;
9422;SDS011;4750;49.506;10.400;2022-07-09T13:06:46;2.67;;;2.00;;
9422;SDS011;4750;49.506;10.400;2022-07-09T13:09:32;4.40;;;2.00;;
9422;SDS011;4750;49.506;10.400;2022-07-09T13:12:17;1.73;;;1.57;;
9422;SDS011;4750;49.506;10.400;2022-07-09T13:15:02;2.00;;;1.50;;
9422;SDS011;4750;49.506;10.400;2022-07-09T13:17:47;3.13;;;1.53;;
9422;SDS011;4750;49.506;10.400;2022-07-09T13:20:31;3.63;;;1.70;;
9422;SDS011;4750;49.506;10.400;2022-07-09T13:23:15;4.17;;;1.63;;
9422;SDS011;4750;49.506;10.400;2022-07-09T13:25:59;3.20;;;1.33;;
9422;SDS011;4750;49.506;10.400;2022-07-09T13:28:43;6.00;;;1.53;;
9422;SDS011;4750;49.506;10.400;2022-07-09T13:31:27;2.17;;;1.60;;
9422;SDS011;4750;49.506;10.400;2022-07-09T13:34:11;3.00;;;1.70;;
9422;SDS011;4750;49.506;10.400;2022-07-09T13:36:55;2.40;;;1.70;;
9422;SDS011;4750;49.506;10.400;2022-07-09T13:39:39;3.70;;;1.50;;
9422;SDS011;4750;49.506;10.400;2022-07-09T13:42:23;4.23;;;1.80;;
9422;SDS011;4750;49.506;10.400;2022-07-09T13:45:07;2.30;;;1.50;;
9422;SDS011;4750;49.506;10.400;2022-07-09T13:47:52;2.47;;;1.60;;
9422;SDS011;4750;49.506;10.400;2022-07-09T13:50:36;3.33;;;1.53;;
9422;SDS011;4750;49.506;10.400;2022-07-09T13:53:23;2.03;;;1.63;;
9422;SDS011;4750;49.506;10.400;2022-07-09T13:56:07;1.60;;;1.50;;
9422;SDS011;4750;49.506;10.400;2022-07-09T13:58:51;2.90;;;1.90;;
9422;SDS011;4750;49.506;10.400;2022-07-09T14:01:35;1.70;;;1.60;;
9422;SDS011;4750;49.506;10.400;2022-07-09T14:04:19;2.37;;;1.90;;
9422;SDS011;4750;49.506;10.400;2022-07-09T14:07:03;4.27;;;1.50;;
9422;SDS011;4750;49.506;10.400;2022-07-09T14:09:47;2.23;;;1.80;;
9422;SDS011;4750;49.506;10.400;2022-07-09T14:12:32;1.70;;;1.60;;
9422;SDS011;4750;49.506;10.400;2022-07-09T14:15:16;2.90;;;1.60;;
9422;SDS011;4750;49.506;10.400;2022-07-09T14:18:01;2.20;;;1.67;;
9422;SDS011;4750;49.506;10.400;2022-07-09T14:20:46;3.90;;;1.77;;
9422;SDS011;4750;49.506;10.400;2022-07-09T14:23:29;2.50;;;2.00;;
9422;SDS011;4750;49.506;10.400;2022-07-09T14:26:14;1.83;;;1.57;;
9422;SDS011;4750;49.506;10.400;2022-07-09T14:28:59;5.47;;;1.63;;
9422;SDS011;4750;49.506;10.400;2022-07-09T14:31:43;1.50;;;1.40;;
9422;SDS011;4750;49.506;10.400;2022-07-09T14:34:27;2.00;;;1.50;;
9422;SDS011;4750;49.506;10.400;2022-07-09T14:37:11;2.17;;;1.53;;
9422;SDS011;4750;49.506;10.400;2022-07-09T14:39:55;4.07;;;1.70;;
9422;SDS011;4750;49.506;10.400;2022-07-09T14:42:39;1.70;;;1.20;;
9422;SDS011;4750;49.506;10.400;2022-07-09T14:45:24;2.20;;;1.57;;
9422;SDS011;4750;49.506;10.400;2022-07-09T14:48:09;3.30;;;1.37;;
9422;SDS011;4750;49.506;10.400;2022-07-09T14:50:54;2.50;;;1.60;;
9422;SDS011;4750;49.506;10.400;2022-07-09T14:53:38;1.60;;;1.50;;
9422;SDS011;4750;49.506;10.400;2022-07-09T14:56:22;3.77;;;1.40;;
9422;SDS011;4750;49.506;10.400;2022-07-09T14:59:06;2.80;;;1.57;;
9422;SDS011;4750;49.506;10.400;2022-07-09T15:01:50;2.67;;;1.57;;
9422;SDS011;4750;49.506;10.400;2022-07-09T15:04:33;3.80;;;1.50;;
9422;SDS011;4750;49.506;10.400;2022-07-09T15:07:17;1.93;;;1.50;;
9422;SDS011;4750;49.506;10.400;2022-07-09T15:10:02;2.23;;;1.60;;
9422;SDS011;4750;49.506;10.400;2022-07-09T15:12:47;2.10;;;1.60;;
9422;SDS011;4750;49.506;10.400;2022-07-09T15:15:31;4.47;;;1.97;;
9422;SDS011;4750;49.506;10.400;2022-07-09T15:18:17;1.77;;;1.67;;
9422;SDS011;4750;49.506;10.400;2022-07-09T15:21:01;1.73;;;1.60;;
9422;SDS011;4750;49.506;10.400;2022-07-09T15:23:45;2.37;;;1.90;;
9422;SDS011;4750;49.506;10.400;2022-07-09T15:26:29;1.73;;;1.53;;
9422;SDS011;4750;49.506;10.400;2022-07-09T15:29:13;3.80;;;1.50;;
9422;SDS011;4750;49.506;10.400;2022-07-09T15:31:57;4.27;;;1.80;;
9422;SDS011;4750;49.506;10.400;2022-07-09T15:34:41;2.27;;;1.60;;
9422;SDS011;4750;49.506;10.400;2022-07-09T15:37:28;6.23;;;1.60;;
9422;SDS011;4750;49.506;10.400;2022-07-09T15:40:12;2.53;;;1.70;;
9422;SDS011;4750;49.506;10.400;2022-07-09T15:42:59;2.07;;;1.30;;
9422;SDS011;4750;49.506;10.400;2022-07-09T15:45:44;2.47;;;1.27;;
9422;SDS011;4750;49.506;10.400;2022-07-09T15:48:28;1.67;;;1.47;;
9422;SDS011;4750;49.506;10.400;2022-07-09T15:51:12;6.23;;;1.53;;
9422;SDS011;4750;49.506;10.400;2022-07-09T15:53:56;1.40;;;1.30;;
9422;SDS011;4750;49.506;10.400;2022-07-09T15:56:40;1.50;;;1.40;;
9422;SDS011;4750;49.506;10.400;2022-07-09T15:59:24;1.40;;;1.30;;
9422;SDS011;4750;49.506;10.400;2022-07-09T16:02:08;2.17;;;1.30;;
9422;SDS011;4750;49.506;10.400;2022-07-09T16:04:52;1.40;;;1.30;;
9422;SDS011;4750;49.506;10.400;2022-07-09T16:07:36;3.30;;;1.60;;
9422;SDS011;4750;49.506;10.400;2022-07-09T16:10:20;1.57;;;1.20;;
9422;SDS011;4750;49.506;10.400;2022-07-09T16:13:04;1.90;;;1.20;;
9422;SDS011;4750;49.506;10.400;2022-07-09T16:15:49;2.47;;;1.40;;
9422;SDS011;4750;49.506;10.400;2022-07-09T16:18:33;1.87;;;1.50;;
9422;SDS011;4750;49.506;10.400;2022-07-09T16:21:18;1.67;;;1.27;;
9422;SDS011;4750;49.506;10.400;2022-07-09T16:24:02;3.03;;;1.30;;
9422;SDS011;4750;49.506;10.400;2022-07-09T16:26:46;3.53;;;1.50;;
9422;SDS011;4750;49.506;10.400;2022-07-09T16:29:30;1.83;;;1.30;;
9422;SDS011;4750;49.506;10.400;2022-07-09T16:32:14;1.70;;;1.40;;
9422;SDS011;4750;49.506;10.400;2022-07-09T16:34:58;2.57;;;1.43;;
9422;SDS011;4750;49.506;10.400;2022-07-09T16:37:42;3.63;;;1.20;;
9422;SDS011;4750;49.506;10.400;2022-07-09T16:40:27;2.03;;;1.40;;
9422;SDS011;4750;49.506;10.400;2022-07-09T16:43:11;1.47;;;1.30;;
9422;SDS011;4750;49.506;10.400;2022-07-09T16:45:56;2.60;;;1.60;;
9422;SDS011;4750;49.506;10.400;2022-07-09T16:49:01;1.50;;;1.40;;
9422;SDS011;4750;49.506;10.400;2022-07-09T16:51:45;4.20;;;1.73;;
9422;SDS011;4750;49.506;10.400;2022-07-09T16:54:29;2.70;;;1.73;;